Time;durP1;ratioP1;P1;durP2;ratioP2;P2;SDS_P1;SDS_P2;PMS_P1;PMS_P2;Temp;Humidity;BMP_temperature;BMP_pressure;BME280_temperature;BME280_humidity;BME280_pressure;Samples;Min_cycle;Max_cycle;Signal;HPM_P1;HPM_P2
2021/06/18 00:02:23;;;;;;;19.17;10.38;;;563.30;2099.20;;;;;;5073340;28;20040;-57
2021/06/18 00:04:48;;;;;;;15.43;10.57;;;563.20;2099.20;;;;;;5072674;28;20028;-57
2021/06/18 00:07:14;;;;;;;19.50;11.10;;;563.20;2099.20;;;;;;5072546;28;20020;-57
2021/06/18 00:09:40;;;;;;;19.52;11.07;;;538.50;2099.20;;;;;;5071622;28;20119;-57
2021/06/18 00:12:06;;;;;;;17.05;11.65;;;538.40;2099.20;;;;;;5072557;28;20036;-58
2021/06/18 00:14:32;;;;;;;18.05;11.48;;;538.40;2099.20;;;;;;5074998;28;20079;-58
2021/06/18 00:16:58;;;;;;;16.58;11.32;;;538.30;2124.80;;;;;;5077151;28;20052;-58
2021/06/18 00:19:24;;;;;;;20.25;11.65;;;538.40;2124.80;;;;;;5077015;28;20023;-58
2021/06/18 00:21:49;;;;;;;16.98;11.68;;;538.30;2124.80;;;;;;5076651;28;20067;-57
2021/06/18 00:24:16;;;;;;;18.38;12.00;;;538.30;2124.80;;;;;;5077395;28;20028;-59
2021/06/18 00:26:41;;;;;;;18.17;11.57;;;538.40;2124.80;;;;;;5077194;28;20550;-57
2021/06/18 00:29:07;;;;;;;15.73;11.32;;;538.40;2124.80;;;;;;5077001;28;20045;-57
2021/06/18 00:31:33;;;;;;;19.00;11.15;;;538.30;2124.80;;;;;;5076740;28;20103;-58
2021/06/18 00:33:58;;;;;;;18.75;11.13;;;538.30;2124.80;;;;;;5076886;28;20024;-57
2021/06/18 00:36:24;;;;;;;16.83;11.73;;;538.30;2124.80;;;;;;5076935;28;20028;-58
2021/06/18 00:38:50;;;;;;;21.08;11.95;;;538.30;2124.80;;;;;;5076984;28;20112;-57
2021/06/18 00:41:16;;;;;;;18.40;12.10;;;538.30;2124.80;;;;;;5076669;28;20021;-58
2021/06/18 00:43:43;;;;;;;15.82;11.43;;;538.30;2099.20;;;;;;5076532;28;20028;-58
2021/06/18 00:46:09;;;;;;;16.73;11.13;;;538.20;2124.80;;;;;;5076841;28;20028;-57
2021/06/18 00:48:36;;;;;;;16.23;10.70;;;538.30;2124.80;;;;;;5076695;28;20095;-58
2021/06/18 00:51:02;;;;;;;18.42;11.90;;;538.20;2124.80;;;;;;5076279;28;20023;-57
2021/06/18 00:53:28;;;;;;;19.45;12.05;;;538.20;2124.80;;;;;;5076602;28;20154;-58
2021/06/18 00:55:54;;;;;;;15.80;11.95;;;538.20;2124.80;;;;;;5076402;28;20086;-57
2021/06/18 00:58:20;;;;;;;14.32;10.45;;;538.20;2124.80;;;;;;5076513;28;20036;-59
2021/06/18 01:00:46;;;;;;;14.40;10.35;;;538.10;2124.80;;;;;;5076309;28;20013;-57
2021/06/18 01:03:13;;;;;;;15.50;10.35;;;538.00;2124.80;;;;;;5075908;28;20112;-57
2021/06/18 01:05:40;;;;;;;16.45;10.57;;;538.00;2124.80;;;;;;5075495;28;20044;-59
2021/06/18 01:08:24;;;;;;;15.05;10.55;;;537.90;2124.80;;;;;;5076460;28;20024;-57
2021/06/18 01:11:13;;;;;;;17.92;9.90;;;537.80;2150.40;;;;;;5076639;28;20052;-57
2021/06/18 01:13:57;;;;;;;18.23;10.40;;;537.80;2150.40;;;;;;5076203;28;20043;-58
2021/06/18 01:16:34;;;;;;;15.30;10.15;;;537.80;2150.40;;;;;;5076192;28;20020;-57
2021/06/18 01:19:08;;;;;;;13.65;9.68;;;537.90;2150.40;;;;;;5075021;28;20060;-56
2021/06/18 01:21:38;;;;;;;15.68;9.38;;;537.80;2150.40;;;;;;5076348;28;20400;-57
2021/06/18 01:24:23;;;;;;;14.35;9.80;;;537.80;2150.40;;;;;;5076210;28;20366;-58
2021/06/18 01:27:15;;;;;;;13.68;9.40;;;537.70;2176.00;;;;;;5075313;28;20046;-57
2021/06/18 01:29:49;;;;;;;11.45;9.23;;;537.70;2176.00;;;;;;5075907;28;20063;-58
2021/06/18 01:32:22;;;;;;;12.70;9.32;;;537.70;2176.00;;;;;;5075951;28;20478;-58
2021/06/18 01:34:50;;;;;;;12.88;8.95;;;537.60;2176.00;;;;;;5076029;28;20020;-57
2021/06/18 01:37:19;;;;;;;15.02;9.82;;;512.90;2150.40;;;;;;5076109;28;20355;-58
2021/06/18 01:39:46;;;;;;;15.48;9.18;;;512.80;2176.00;;;;;;5075724;28;20098;-57
2021/06/18 01:42:15;;;;;;;13.32;9.30;;;512.80;2176.00;;;;;;5075720;28;20033;-57
2021/06/18 01:44:42;;;;;;;14.63;9.80;;;512.80;2176.00;;;;;;5075410;28;20025;-58
2021/06/18 01:47:10;;;;;;;14.20;9.98;;;512.80;2176.00;;;;;;5075745;28;20367;-57
2021/06/18 01:49:38;;;;;;;14.15;10.18;;;512.80;2176.00;;;;;;5074687;28;20083;-57
2021/06/18 01:52:06;;;;;;;19.05;10.95;;;512.70;2176.00;;;;;;5075579;28;20119;-59
2021/06/18 01:54:34;;;;;;;14.00;10.43;;;512.70;2201.60;;;;;;5075273;28;20024;-61
2021/06/18 01:57:03;;;;;;;15.98;10.05;;;512.60;2201.60;;;;;;5075490;28;20055;-60
2021/06/18 01:59:33;;;;;;;14.00;9.90;;;512.60;2201.60;;;;;;5075674;28;20067;-57
2021/06/18 02:02:02;;;;;;;13.25;9.50;;;512.60;2201.60;;;;;;5075258;28;20035;-58
2021/06/18 02:04:28;;;;;;;14.30;10.15;;;512.60;2201.60;;;;;;5075490;28;20485;-60
2021/06/18 02:06:55;;;;;;;17.10;9.77;;;512.60;2201.60;;;;;;5075270;28;20035;-59
2021/06/18 02:09:24;;;;;;;15.80;9.73;;;512.60;2201.60;;;;;;5075235;28;20529;-57
2021/06/18 02:11:50;;;;;;;15.70;9.98;;;512.60;2201.60;;;;;;5075034;28;20089;-58
2021/06/18 02:14:19;;;;;;;14.95;10.10;;;512.60;2201.60;;;;;;5075074;28;20025;-57
2021/06/18 02:16:51;;;;;;;16.27;9.77;;;512.50;2201.60;;;;;;5075069;28;20025;-57
2021/06/18 02:19:19;;;;;;;15.65;10.35;;;512.50;2227.20;;;;;;5074976;28;20098;-59
2021/06/18 02:21:47;;;;;;;14.50;10.10;;;512.40;2227.20;;;;;;5073947;28;20194;-59
2021/06/18 02:24:15;;;;;;;15.25;10.38;;;512.50;2227.20;;;;;;5075048;28;20025;-59
2021/06/18 02:26:42;;;;;;;17.35;10.57;;;512.50;2227.20;;;;;;5075090;28;20089;-57
2021/06/18 02:29:09;;;;;;;13.75;10.20;;;512.50;2227.20;;;;;;5074818;28;20026;-58
2021/06/18 02:31:37;;;;;;;20.10;9.93;;;512.50;2227.20;;;;;;5074562;28;20351;-57
2021/06/18 02:34:05;;;;;;;16.95;10.48;;;512.40;2227.20;;;;;;5074999;28;20021;-57
2021/06/18 02:36:31;;;;;;;13.80;10.18;;;512.40;2227.20;;;;;;5074848;28;20039;-57
2021/06/18 02:38:57;;;;;;;16.55;10.98;;;512.40;2227.20;;;;;;5072758;28;20041;-58
2021/06/18 02:41:22;;;;;;;14.60;10.75;;;512.20;2227.20;;;;;;5074707;28;20348;-57
2021/06/18 02:43:49;;;;;;;14.98;10.70;;;512.30;2252.80;;;;;;5074568;28;20095;-58
2021/06/18 02:46:43;;;;;;;16.33;10.68;;;512.20;2252.80;;;;;;5074421;28;20024;-58
2021/06/18 02:49:14;;;;;;;15.90;9.93;;;512.30;2252.80;;;;;;5052718;28;20124;-57
2021/06/18 02:51:56;;;;;;;13.65;9.93;;;512.30;2252.80;;;;;;5052289;28;20106;-57
2021/06/18 02:54:31;;;;;;;17.13;10.27;;;512.30;2252.80;;;;;;5052454;28;20047;-59
2021/06/18 02:57:01;;;;;;;;;;;512.20;2252.80;;;;;;5052507;28;20510;-57
2021/06/18 02:59:40;;;;;;;13.25;9.70;;;512.30;2252.80;;;;;;5052068;28;19912;-57
2021/06/18 03:02:09;;;;;;;15.13;10.63;;;512.30;2252.80;;;;;;5052199;28;20419;-57
2021/06/18 03:04:37;;;;;;;13.02;9.50;;;512.20;2252.80;;;;;;5052190;28;20516;-57
2021/06/18 03:07:08;;;;;;;15.70;9.80;;;512.20;2252.80;;;;;;5051892;28;20495;-57
2021/06/18 03:09:45;;;;;;;12.57;10.05;;;512.20;2252.80;;;;;;5052368;28;20025;-57
2021/06/18 03:12:12;;;;;;;15.30;10.68;;;512.10;2252.80;;;;;;5051804;28;20036;-57
2021/06/18 03:14:42;;;;;;;14.07;9.70;;;512.10;2252.80;;;;;;5051771;28;20017;-58
2021/06/18 03:17:10;;;;;;;15.75;10.48;;;512.10;2252.80;;;;;;5051934;28;20021;-57
2021/06/18 03:19:45;;;;;;;14.30;10.27;;;512.10;2252.80;;;;;;5052066;28;20044;-57
2021/06/18 03:22:11;;;;;;;;;;;512.10;2252.80;;;;;;5052186;28;20136;-57
2021/06/18 03:24:39;;;;;;;13.60;9.95;;;512.20;2252.80;;;;;;5051902;28;20302;-57
2021/06/18 03:27:06;;;;;;;14.48;9.43;;;512.10;2252.80;;;;;;5072725;28;20569;-57
2021/06/18 03:29:32;;;;;;;14.20;9.88;;;512.10;2252.80;;;;;;5073656;28;20077;-57
2021/06/18 03:32:00;;;;;;;13.05;9.93;;;512.10;2252.80;;;;;;5073572;28;20036;-57
2021/06/18 03:34:27;;;;;;;14.82;9.68;;;512.10;2252.80;;;;;;5073820;28;20481;-57
2021/06/18 03:36:54;;;;;;;12.40;9.48;;;512.10;2252.80;;;;;;5073789;28;20029;-57
2021/06/18 03:39:20;;;;;;;15.07;9.95;;;512.10;2252.80;;;;;;5073252;28;20024;-59
2021/06/18 03:41:47;;;;;;;14.15;9.90;;;512.10;2252.80;;;;;;5073801;28;20086;-58
2021/06/18 03:44:15;;;;;;;14.40;9.07;;;512.10;2252.80;;;;;;5073799;28;20351;-57
2021/06/18 03:46:42;;;;;;;11.80;8.82;;;512.10;2252.80;;;;;;5072778;28;20228;-57
2021/06/18 03:49:10;;;;;;;14.45;9.57;;;512.20;2252.80;;;;;;5071809;28;20017;-57
2021/06/18 03:51:36;;;;;;;14.35;9.80;;;512.20;2252.80;;;;;;5069198;28;20037;-57
2021/06/18 03:54:02;;;;;;;13.98;9.63;;;512.10;2252.80;;;;;;5071514;28;20051;-57
2021/06/18 03:56:30;;;;;;;13.20;9.82;;;512.10;2252.80;;;;;;5071661;28;20075;-57
2021/06/18 03:58:57;;;;;;;15.10;9.45;;;512.20;2252.80;;;;;;5069610;28;20025;-56
2021/06/18 04:01:26;;;;;;;14.13;9.73;;;512.30;2252.80;;;;;;5072194;28;20089;-56
2021/06/18 04:03:53;;;;;;;13.80;9.88;;;512.30;2252.80;;;;;;5071999;28;20069;-56
2021/06/18 04:06:19;;;;;;;15.63;9.75;;;512.30;2252.80;;;;;;5071663;28;20021;-57
2021/06/18 04:08:47;;;;;;;15.50;10.00;;;512.40;2252.80;;;;;;5071908;28;20017;-59
2021/06/18 04:11:14;;;;;;;13.82;9.77;;;512.40;2252.80;;;;;;5071543;28;20137;-57
2021/06/18 04:13:41;;;;;;;14.43;9.60;;;512.40;2252.80;;;;;;5070683;28;20013;-57
2021/06/18 04:16:08;;;;;;;14.32;10.05;;;512.60;2252.80;;;;;;5071472;28;20154;-57
2021/06/18 04:18:36;;;;;;;16.63;9.88;;;512.70;2252.80;;;;;;5071622;28;20495;-57
2021/06/18 04:21:09;;;;;;;14.40;9.75;;;512.80;2227.20;;;;;;5072882;28;20029;-58
2021/06/18 04:23:35;;;;;;;13.73;9.90;;;512.80;2227.20;;;;;;5072944;28;20554;-57
2021/06/18 04:26:01;;;;;;;14.95;11.10;;;512.90;2201.60;;;;;;5073246;28;20029;-58
2021/06/18 04:28:28;;;;;;;29.25;19.42;;;512.90;2201.60;;;;;;5072796;28;20366;-57
2021/06/18 04:30:54;;;;;;;30.58;20.30;;;537.70;2227.20;;;;;;5073331;28;20147;-58
2021/06/18 04:33:19;;;;;;;28.90;19.80;;;537.80;2227.20;;;;;;5073265;28;20407;-57
2021/06/18 04:35:45;;;;;;;21.13;13.73;;;537.90;2201.60;;;;;;5072944;28;20024;-58
2021/06/18 04:38:11;;;;;;;15.52;10.63;;;537.90;2201.60;;;;;;5072952;28;20029;-58
2021/06/18 04:40:37;;;;;;;15.10;9.15;;;537.90;2201.60;;;;;;5072486;28;20075;-59
2021/06/18 04:43:04;;;;;;;14.77;9.80;;;538.00;2201.60;;;;;;5072909;28;20029;-59
2021/06/18 04:45:30;;;;;;;13.02;9.20;;;538.00;2176.00;;;;;;5072824;28;20016;-59
2021/06/18 04:47:57;;;;;;;12.82;9.45;;;538.00;2176.00;;;;;;5072108;28;20028;-57
2021/06/18 04:50:23;;;;;;;14.13;9.40;;;538.00;2176.00;;;;;;5072870;28;20437;-58
2021/06/18 04:52:50;;;;;;;14.15;9.05;;;538.00;2176.00;;;;;;5072946;28;20420;-57
2021/06/18 04:55:17;;;;;;;14.15;8.43;;;538.10;2176.00;;;;;;5072466;28;20024;-57
2021/06/18 04:57:47;;;;;;;12.85;8.52;;;538.30;2176.00;;;;;;5072863;28;20039;-58
2021/06/18 05:00:14;;;;;;;12.75;8.75;;;538.30;2150.40;;;;;;5072979;28;20025;-58
2021/06/18 05:02:40;;;;;;;14.10;8.63;;;538.40;2150.40;;;;;;5076082;28;20017;-58
2021/06/18 05:05:07;;;;;;;11.30;7.78;;;538.50;2150.40;;;;;;5076374;28;20033;-58
2021/06/18 05:07:33;;;;;;;13.15;8.70;;;563.30;2176.00;;;;;;5076298;28;20103;-58
2021/06/18 05:09:59;;;;;;;11.80;8.15;;;563.30;2150.40;;;;;;5076563;28;20107;-59
2021/06/18 05:12:24;;;;;;;12.52;9.27;;;563.40;2176.00;;;;;;5076167;28;20055;-58
2021/06/18 05:14:50;;;;;;;16.08;8.90;;;563.50;2150.40;;;;;;5075926;28;20024;-57
2021/06/18 05:17:16;;;;;;;13.50;8.43;;;563.60;2150.40;;;;;;5075982;28;20033;-58
2021/06/18 05:19:42;;;;;;;13.27;8.65;;;563.70;2150.40;;;;;;5076025;28;20020;-58
2021/06/18 05:22:08;;;;;;;11.48;7.93;;;563.70;2150.40;;;;;;5076142;28;20367;-58
2021/06/18 05:24:33;;;;;;;13.52;8.15;;;563.90;2150.40;;;;;;5075740;28;20091;-59
2021/06/18 05:26:59;;;;;;;11.90;8.45;;;564.00;2150.40;;;;;;5075970;28;20374;-58
2021/06/18 05:29:25;;;;;;;12.80;8.38;;;564.00;2150.40;;;;;;5076057;28;20013;-58
2021/06/18 05:31:50;;;;;;;15.25;8.95;;;564.10;2150.40;;;;;;5075887;28;20048;-59
2021/06/18 05:34:16;;;;;;;11.25;7.82;;;588.80;2150.40;;;;;;5076142;28;20480;-58
2021/06/18 05:36:44;;;;;;;11.38;8.10;;;588.80;2124.80;;;;;;5075600;28;20028;-58
2021/06/18 05:39:11;;;;;;;12.68;8.10;;;588.80;2124.80;;;;;;5075887;28;20024;-58
2021/06/18 05:41:37;;;;;;;10.95;7.78;;;588.90;2124.80;;;;;;5075734;28;20059;-58
2021/06/18 05:44:03;;;;;;;12.45;7.85;;;589.00;2124.80;;;;;;5075865;28;20059;-58
2021/06/18 05:46:29;;;;;;;13.35;8.15;;;589.00;2099.20;;;;;;5075536;28;20016;-58
2021/06/18 05:48:55;;;;;;;11.25;7.90;;;589.10;2099.20;;;;;;5075742;28;20028;-58
2021/06/18 05:51:20;;;;;;;16.38;8.13;;;589.20;2124.80;;;;;;5075492;28;20033;-58
2021/06/18 05:53:46;;;;;;;11.68;7.72;;;589.40;2099.20;;;;;;5074445;28;20017;-58
2021/06/18 05:56:12;;;;;;;12.10;8.48;;;589.40;2073.60;;;;;;5075239;28;20048;-58
2021/06/18 05:58:37;;;;;;;14.52;8.57;;;589.60;2073.60;;;;;;5075567;28;20020;-59
2021/06/18 06:01:04;;;;;;;11.00;8.20;;;589.60;2073.60;;;;;;5075409;28;20407;-57
2021/06/18 06:03:29;;;;;;;12.07;8.48;;;589.70;2048.00;;;;;;5075443;28;20029;-59
2021/06/18 06:05:55;;;;;;;14.40;8.10;;;589.70;2048.00;;;;;;5075242;28;20031;-58
2021/06/18 06:08:21;;;;;;;12.15;8.23;;;614.40;2022.40;;;;;;5074667;28;20028;-58
2021/06/18 06:10:48;;;;;;;11.32;8.27;;;614.60;2048.00;;;;;;5075213;28;20036;-59
2021/06/18 06:13:18;;;;;;;11.70;8.40;;;614.60;2048.00;;;;;;5073470;28;20560;-57
2021/06/18 06:15:46;;;;;;;12.35;8.50;;;614.70;2022.40;;;;;;5075086;28;20101;-58
2021/06/18 06:18:12;;;;;;;12.00;8.38;;;614.80;2022.40;;;;;;5075051;28;20035;-58
2021/06/18 06:20:37;;;;;;;12.30;8.30;;;614.90;2022.40;;;;;;5075216;28;20025;-58
2021/06/18 06:23:03;;;;;;;15.55;7.35;;;615.00;2022.40;;;;;;5074955;28;20023;-58
2021/06/18 06:25:29;;;;;;;10.15;7.30;;;615.10;2022.40;;;;;;5074908;28;20116;-58
2021/06/18 06:27:55;;;;;;;11.38;6.95;;;615.20;1996.80;;;;;;5074886;28;20052;-58
2021/06/18 06:30:21;;;;;;;10.15;7.18;;;615.30;1971.20;;;;;;5074189;28;20030;-61
2021/06/18 06:32:46;;;;;;;12.68;7.13;;;640.00;1996.80;;;;;;5074815;28;20123;-61
2021/06/18 06:35:12;;;;;;;10.43;6.90;;;640.10;1971.20;;;;;;5074674;28;20024;-61
2021/06/18 06:37:38;;;;;;;13.63;7.40;;;640.20;1971.20;;;;;;5074491;28;20099;-61
2021/06/18 06:40:06;;;;;;;10.95;6.78;;;640.30;1945.60;;;;;;5074794;28;20101;-61
2021/06/18 06:42:31;;;;;;;11.02;6.72;;;640.40;1945.60;;;;;;5074470;28;20421;-61
2021/06/18 06:44:57;;;;;;;11.38;7.40;;;640.40;1920.00;;;;;;5074564;28;20028;-61
2021/06/18 06:47:23;;;;;;;10.57;6.28;;;640.60;1945.60;;;;;;5073168;28;20029;-61
2021/06/18 06:49:48;;;;;;;10.02;7.10;;;640.80;1894.40;;;;;;5074673;28;20024;-62
2021/06/18 06:52:14;;;;;;;12.18;7.25;;;640.80;1868.80;;;;;;5074126;28;20086;-61
2021/06/18 06:54:40;;;;;;;13.00;7.70;;;640.90;1894.40;;;;;;5074080;28;20111;-61
2021/06/18 06:57:06;;;;;;;14.25;7.38;;;665.60;1894.40;;;;;;5074090;28;20144;-61
2021/06/18 06:59:32;;;;;;;13.52;7.20;;;665.80;1894.40;;;;;;5074450;28;20025;-61
2021/06/18 07:01:57;;;;;;;11.88;7.50;;;665.90;1894.40;;;;;;5073962;28;20485;-61
2021/06/18 07:04:23;;;;;;;16.70;7.85;;;665.90;1868.80;;;;;;5073481;28;20020;-61
2021/06/18 07:06:49;;;;;;;11.30;6.80;;;666.00;1868.80;;;;;;5074076;28;20021;-61
2021/06/18 07:09:16;;;;;;;12.18;6.93;;;666.10;1817.60;;;;;;5073915;28;20017;-61
2021/06/18 07:11:42;;;;;;;10.13;6.50;;;666.20;1843.20;;;;;;5073981;28;20378;-61
2021/06/18 07:14:07;;;;;;;8.15;5.50;;;666.40;1817.60;;;;;;5073997;28;20021;-61
2021/06/18 07:16:33;;;;;;;8.30;4.88;;;666.50;1817.60;;;;;;5073762;28;20029;-61
2021/06/18 07:18:59;;;;;;;8.18;4.68;;;691.20;1792.00;;;;;;5073100;28;20534;-61
2021/06/18 07:21:25;;;;;;;10.00;5.25;;;691.30;1766.40;;;;;;5073872;28;20032;-62
2021/06/18 07:23:50;;;;;;;6.82;4.72;;;691.50;1740.80;;;;;;5073212;28;20032;-62
2021/06/18 07:26:16;;;;;;;9.43;4.65;;;691.50;1740.80;;;;;;5073430;28;20025;-61
2021/06/18 07:28:42;;;;;;;8.25;5.25;;;691.60;1715.20;;;;;;5055784;28;20119;-62
2021/06/18 07:31:07;;;;;;;9.88;4.80;;;691.70;1740.80;;;;;;5073317;28;20028;-62
2021/06/18 07:33:35;;;;;;;7.82;4.65;;;691.80;1740.80;;;;;;5073675;28;20483;-62
2021/06/18 07:36:01;;;;;;;7.45;4.63;;;692.00;1689.60;;;;;;5073872;28;20033;-62
2021/06/18 07:38:27;;;;;;;7.32;4.38;;;692.10;1638.40;;;;;;5073482;28;20031;-62
2021/06/18 07:40:53;;;;;;;8.05;4.45;;;716.80;1689.60;;;;;;5073709;28;20025;-61
2021/06/18 07:43:18;;;;;;;4.88;3.67;;;717.00;1664.00;;;;;;5073987;28;20076;-61
2021/06/18 07:45:44;;;;;;;6.15;3.92;;;717.00;1587.20;;;;;;5073369;28;20029;-61
2021/06/18 07:48:10;;;;;;;8.43;3.92;;;717.10;1612.80;;;;;;5073892;28;20020;-61
2021/06/18 07:50:38;;;;;;;5.32;4.05;;;717.10;1638.40;;;;;;5072966;28;20490;-61
2021/06/18 07:53:04;;;;;;;13.70;6.97;;;717.10;1612.80;;;;;;5073381;28;20043;-61
2021/06/18 07:55:31;;;;;;;13.65;6.68;;;717.30;1612.80;;;;;;5073476;28;20024;-61
2021/06/18 07:57:56;;;;;;;6.57;4.03;;;717.30;1612.80;;;;;;5072286;28;20033;-61
2021/06/18 08:00:23;;;;;;;6.13;4.32;;;717.40;1587.20;;;;;;5073722;28;20028;-61
2021/06/18 08:02:49;;;;;;;4.53;3.88;;;717.50;1612.80;;;;;;5073389;28;20052;-61
2021/06/18 08:05:16;;;;;;;8.75;3.85;;;717.50;1561.60;;;;;;5073177;28;20023;-62
2021/06/18 08:07:44;;;;;;;6.32;4.00;;;717.70;1536.00;;;;;;5073159;28;20497;-62
2021/06/18 08:10:12;;;;;;;5.50;4.00;;;742.40;1561.60;;;;;;5073303;28;20029;-62
2021/06/18 08:12:38;;;;;;;6.78;4.30;;;742.40;1612.80;;;;;;5073273;28;20032;-62
2021/06/18 08:15:05;;;;;;;5.43;3.75;;;742.50;1561.60;;;;;;5073440;28;20031;-62
2021/06/18 08:17:31;;;;;;;4.70;3.42;;;742.70;1536.00;;;;;;5071999;28;20032;-61
2021/06/18 08:19:57;;;;;;;5.43;3.47;;;742.70;1484.80;;;;;;5073347;28;20028;-61
2021/06/18 08:22:23;;;;;;;4.70;3.17;;;742.80;1510.40;;;;;;5069047;28;20035;-62
2021/06/18 08:24:48;;;;;;;6.32;3.45;;;742.90;1459.20;;;;;;5073140;28;20470;-62
2021/06/18 08:27:14;;;;;;;7.80;3.58;;;743.00;1433.60;;;;;;5072745;28;20421;-62
2021/06/18 08:29:40;;;;;;;5.22;3.30;;;743.20;1433.60;;;;;;5073144;28;20028;-62
2021/06/18 08:32:06;;;;;;;7.13;3.30;;;743.20;1408.00;;;;;;5072988;28;20407;-62
2021/06/18 08:34:32;;;;;;;6.88;3.00;;;768.00;1408.00;;;;;;5072592;28;20398;-62
2021/06/18 08:36:58;;;;;;;5.82;3.05;;;768.10;1382.40;;;;;;5075058;28;20029;-61
2021/06/18 08:39:23;;;;;;;4.28;3.25;;;768.20;1356.80;;;;;;5076605;28;20031;-62
2021/06/18 08:41:49;;;;;;;4.90;3.00;;;768.10;1356.80;;;;;;5076434;28;20024;-62
2021/06/18 08:44:19;;;;;;;4.70;3.03;;;768.30;1356.80;;;;;;5075430;28;20027;-62
2021/06/18 08:46:46;;;;;;;3.97;2.95;;;768.40;1331.20;;;;;;5074974;28;20036;-62
2021/06/18 08:49:12;;;;;;;6.68;2.80;;;768.40;1305.60;;;;;;5076048;28;20032;-60
2021/06/18 08:51:37;;;;;;;4.75;2.80;;;768.70;1305.60;;;;;;5076706;28;20024;-62
2021/06/18 08:54:04;;;;;;;3.60;2.50;;;768.70;1254.40;;;;;;5076540;28;20497;-60
2021/06/18 08:56:29;;;;;;;4.20;2.72;;;768.80;1254.40;;;;;;5076056;28;20040;-60
2021/06/18 08:58:55;;;;;;;3.95;2.50;;;768.90;1228.80;;;;;;5076065;28;20036;-60
2021/06/18 09:01:21;;;;;;;4.75;2.63;;;793.60;1254.40;;;;;;5075826;28;20380;-60
2021/06/18 09:03:48;;;;;;;3.88;2.60;;;793.70;1254.40;;;;;;5075513;28;20162;-60
2021/06/18 09:06:33;;;;;;;4.57;2.60;;;793.80;1228.80;;;;;;5075481;28;20112;-61
2021/06/18 09:09:19;;;;;;;4.10;2.60;;;793.90;1254.40;;;;;;5074695;28;20028;-60
2021/06/18 09:12:00;;;;;;;4.65;2.60;;;794.00;1254.40;;;;;;5073898;28;20044;-60
2021/06/18 09:14:36;;;;;;;5.25;2.30;;;794.10;1228.80;;;;;;5075302;28;20032;-62
2021/06/18 09:17:11;;;;;;;5.75;2.40;;;794.30;1203.20;;;;;;5075180;28;20029;-61
2021/06/18 09:19:42;;;;;;;5.70;2.33;;;794.40;1177.60;;;;;;5075849;28;20066;-60
2021/06/18 09:22:17;;;;;;;3.65;2.35;;;794.50;1152.00;;;;;;5076002;28;20577;-60
2021/06/18 09:24:47;;;;;;;3.90;2.50;;;819.20;1152.00;;;;;;5075806;28;20129;-60
2021/06/18 09:27:14;;;;;;;4.43;2.60;;;819.20;1126.40;;;;;;5068830;28;20095;-60
2021/06/18 09:29:41;;;;;;;4.05;2.55;;;819.20;1152.00;;;;;;5075681;28;20040;-60
2021/06/18 09:32:12;;;;;;;3.35;2.30;;;819.40;1126.40;;;;;;5075269;28;20040;-60
2021/06/18 09:35:00;;;;;;;4.50;2.50;;;819.50;1152.00;;;;;;5075542;28;20024;-60
2021/06/18 09:37:30;;;;;;;4.88;2.30;;;819.60;1126.40;;;;;;5075763;28;20056;-60
2021/06/18 09:40:10;;;;;;;3.53;2.22;;;819.60;1100.80;;;;;;5075532;28;20111;-60
2021/06/18 09:42:56;;;;;;;3.92;2.30;;;819.60;1049.60;;;;;;5075637;28;20363;-61
2021/06/18 09:45:35;;;;;;;3.47;2.33;;;819.70;1075.20;;;;;;5074408;28;20140;-61
2021/06/18 09:48:10;;;;;;;2.92;2.20;;;819.70;1075.20;;;;;;5073786;28;20028;-60
2021/06/18 09:50:39;;;;;;;4.72;2.42;;;819.70;1049.60;;;;;;5075635;28;20025;-60
2021/06/18 09:53:19;;;;;;;3.58;2.25;;;819.70;1075.20;;;;;;5075098;28;20036;-61
2021/06/18 09:55:47;;;;;;;4.70;2.50;;;819.70;1075.20;;;;;;5072468;28;20043;-60
2021/06/18 09:58:30;;;;;;;3.60;2.20;;;819.70;1049.60;;;;;;5073767;28;20055;-60
2021/06/18 10:01:23;;;;;;;2.95;2.45;;;819.70;1024.00;;;;;;5074529;28;20028;-61
2021/06/18 10:04:12;;;;;;;3.33;2.50;;;820.00;1049.60;;;;;;5074918;28;20119;-60
2021/06/18 10:06:39;;;;;;;5.07;2.45;;;820.10;1049.60;;;;;;5074982;28;20369;-61
2021/06/18 10:09:07;;;;;;;6.55;2.72;;;844.80;1049.60;;;;;;5074768;28;20021;-60
2021/06/18 10:11:34;;;;;;;9.18;2.40;;;844.90;1024.00;;;;;;5074642;28;20162;-61
2021/06/18 10:14:00;;;;;;;6.93;3.67;;;845.10;1024.00;;;;;;5074226;28;20025;-61
2021/06/18 10:16:27;;;;;;;4.45;2.40;;;845.10;1024.00;;;;;;5074784;28;20024;-60
2021/06/18 10:18:57;;;;;;;3.00;2.20;;;845.10;998.40;;;;;;5074134;28;20025;-62
2021/06/18 10:21:24;;;;;;;4.50;2.35;;;845.10;998.40;;;;;;5074848;28;20052;-62
2021/06/18 10:23:56;;;;;;;6.47;2.40;;;845.10;998.40;;;;;;5074625;28;20056;-61
2021/06/18 10:26:24;;;;;;;3.97;2.10;;;845.20;972.80;;;;;;5074611;28;20423;-61
2021/06/18 10:28:55;;;;;;;5.72;2.42;;;845.30;972.80;;;;;;5074764;28;20020;-60
2021/06/18 10:31:28;;;;;;;3.63;2.10;;;845.40;947.20;;;;;;5073768;28;20506;-60
2021/06/18 10:34:13;;;;;;;3.35;2.20;;;845.40;998.40;;;;;;5074433;28;20047;-61
2021/06/18 10:36:39;;;;;;;5.95;2.53;;;845.60;972.80;;;;;;5073958;28;20024;-61
2021/06/18 10:39:16;;;;;;;3.35;2.33;;;870.40;972.80;;;;;;5074280;28;20024;-60
2021/06/18 10:41:52;;;;;;;2.60;2.00;;;870.40;947.20;;;;;;5073895;28;20021;-61
2021/06/18 10:44:37;;;;;;;4.15;2.38;;;870.50;947.20;;;;;;5074267;28;20032;-61
2021/06/18 10:47:03;;;;;;;5.35;2.38;;;870.60;947.20;;;;;;5074204;28;20355;-61
2021/06/18 10:49:40;;;;;;;2.90;2.30;;;870.60;921.60;;;;;;5073859;28;20031;-61
2021/06/18 10:52:16;;;;;;;2.63;2.15;;;870.60;947.20;;;;;;5073872;28;20399;-60
2021/06/18 10:54:58;;;;;;;3.65;2.40;;;870.70;921.60;;;;;;5073978;28;20096;-61
2021/06/18 10:57:29;;;;;;;5.97;2.28;;;870.80;896.00;;;;;;5074148;28;20490;-60
2021/06/18 11:00:17;;;;;;;4.70;2.58;;;870.90;896.00;;;;;;5073569;28;20032;-61
2021/06/18 11:02:44;;;;;;;5.32;2.35;;;871.00;896.00;;;;;;5073743;28;20055;-60
2021/06/18 11:05:26;;;;;;;4.40;2.10;;;871.10;896.00;;;;;;5089717;28;20090;-61
2021/06/18 11:08:16;;;;;;;5.78;2.30;;;871.20;921.60;;;;;;5073745;28;20501;-60
2021/06/18 11:10:48;;;;;;;3.53;2.30;;;871.20;896.00;;;;;;5073613;28;20051;-60
2021/06/18 11:13:18;;;;;;;2.60;2.10;;;871.20;870.40;;;;;;5073379;28;20031;-61
2021/06/18 11:15:45;;;;;;;4.63;2.20;;;871.20;896.00;;;;;;5073648;28;20493;-61
2021/06/18 11:18:27;;;;;;;4.70;2.20;;;871.20;870.40;;;;;;5073680;28;20082;-61
2021/06/18 11:20:55;;;;;;;4.80;2.25;;;871.20;870.40;;;;;;5072474;28;20024;-61
2021/06/18 11:23:31;;;;;;;3.95;2.20;;;871.30;870.40;;;;;;5073261;28;20024;-61
2021/06/18 11:26:01;;;;;;;4.28;2.40;;;871.20;870.40;;;;;;5071753;28;20390;-61
2021/06/18 11:28:27;;;;;;;4.93;2.28;;;871.30;870.40;;;;;;5073309;28;20486;-61
2021/06/18 11:30:57;;;;;;;3.50;2.13;;;871.20;844.80;;;;;;5070083;28;20035;-60
2021/06/18 11:33:41;;;;;;;3.28;1.92;;;871.20;844.80;;;;;;5070744;28;20028;-61
2021/06/18 11:36:22;;;;;;;3.95;2.30;;;896.00;844.80;;;;;;5073530;28;20032;-60
2021/06/18 11:38:49;;;;;;;8.35;2.90;;;896.10;870.40;;;;;;5072245;28;20035;-61
2021/06/18 11:41:20;;;;;;;3.05;2.25;;;896.10;870.40;;;;;;5073298;28;20035;-60
2021/06/18 11:43:50;;;;;;;10.00;3.28;;;871.30;896.00;;;;;;5073624;28;20435;-60
2021/06/18 11:46:21;;;;;;;2.30;1.95;;;871.10;896.00;;;;;;5073346;28;20538;-60
2021/06/18 11:48:47;;;;;;;3.60;2.10;;;871.00;896.00;;;;;;5073349;28;20055;-60
2021/06/18 11:51:25;;;;;;;10.90;3.47;;;870.70;870.40;;;;;;5073312;28;20493;-60
2021/06/18 11:53:51;;;;;;;5.53;3.08;;;870.70;921.60;;;;;;5073308;28;20039;-60
2021/06/18 11:56:17;;;;;;;6.20;2.65;;;870.70;921.60;;;;;;5072031;28;20044;-60
2021/06/18 11:58:45;;;;;;;3.38;2.30;;;870.60;870.40;;;;;;5071840;28;20062;-61
2021/06/18 12:01:11;;;;;;;7.28;2.80;;;870.60;896.00;;;;;;5072455;28;20554;-60
2021/06/18 12:03:37;;;;;;;5.78;2.97;;;870.40;921.60;;;;;;5073516;28;20104;-60
2021/06/18 12:06:29;;;;;;;3.17;2.00;;;870.50;921.60;;;;;;5072607;28;20081;-61
2021/06/18 12:09:15;;;;;;;3.05;2.42;;;870.50;844.80;;;;;;5072236;28;20033;-61
2021/06/18 12:11:43;;;;;;;4.38;1.98;;;870.60;896.00;;;;;;5076895;28;20054;-60
2021/06/18 12:14:11;;;;;;;4.50;2.30;;;870.50;870.40;;;;;;5077752;28;20025;-60
2021/06/18 12:16:45;;;;;;;4.80;2.40;;;870.50;896.00;;;;;;5077867;28;20370;-61
2021/06/18 12:19:21;;;;;;;3.80;2.20;;;845.70;896.00;;;;;;5077539;28;20024;-61
2021/06/18 12:22:03;;;;;;;2.90;1.80;;;845.70;870.40;;;;;;5077534;28;20344;-60